sensor_id;sensor_type;location;lat;lon;timestamp;pressure;altitude;pressure_sealevel;temperature;humidity
72857;BME280;62742;52.136;4.500;2022-11-25T00:01:30;100894.13;;;9.26;91.35
72857;BME280;62742;52.136;4.500;2022-11-25T00:03:59;100887.16;;;9.22;91.44
72857;BME280;62742;52.136;4.500;2022-11-25T00:06:30;100891.63;;;9.10;92.18
72857;BME280;62742;52.136;4.500;2022-11-25T00:09:04;100905.63;;;9.11;92.25
72857;BME280;62742;52.136;4.500;2022-11-25T00:11:37;100897.59;;;9.28;91.46
72857;BME280;62742;52.136;4.500;2022-11-25T00:14:06;100902.06;;;9.18;91.85
72857;BME280;62742;52.136;4.500;2022-11-25T00:16:38;100898.50;;;9.22;91.55
72857;BME280;62742;52.136;4.500;2022-11-25T00:19:04;100884.50;;;9.26;91.75
72857;BME280;62742;52.136;4.500;2022-11-25T00:21:32;100894.81;;;9.45;90.82
72857;BME280;62742;52.136;4.500;2022-11-25T00:24:04;100887.13;;;9.28;91.38
72857;BME280;62742;52.136;4.500;2022-11-25T00:26:33;100887.97;;;9.30;91.83
72857;BME280;62742;52.136;4.500;2022-11-25T00:29:04;100883.69;;;9.20;92.19
72857;BME280;62742;52.136;4.500;2022-11-25T00:31:34;100890.69;;;9.21;92.51
72857;BME280;62742;52.136;4.500;2022-11-25T00:34:02;100894.19;;;9.20;92.62
72857;BME280;62742;52.136;4.500;2022-11-25T00:36:35;100899.44;;;9.15;92.94
72857;BME280;62742;52.136;4.500;2022-11-25T00:39:12;100906.38;;;9.24;92.83
72857;BME280;62742;52.136;4.500;2022-11-25T00:41:41;100904.63;;;9.24;92.97
72857;BME280;62742;52.136;4.500;2022-11-25T00:44:27;100904.63;;;9.26;92.92
72857;BME280;62742;52.136;4.500;2022-11-25T00:47:07;100899.28;;;9.32;92.99
72857;BME280;62742;52.136;4.500;2022-11-25T00:49:35;100898.44;;;9.33;92.48
72857;BME280;62742;52.136;4.500;2022-11-25T00:52:04;100912.41;;;9.30;92.79
72857;BME280;62742;52.136;4.500;2022-11-25T00:54:31;100923.84;;;9.26;92.70
72857;BME280;62742;52.136;4.500;2022-11-25T00:56:58;100915.09;;;9.26;93.21
72857;BME280;62742;52.136;4.500;2022-11-25T00:59:25;100917.75;;;9.23;93.28
72857;BME280;62742;52.136;4.500;2022-11-25T01:01:53;100915.00;;;9.35;92.86
72857;BME280;62742;52.136;4.500;2022-11-25T01:04:20;100913.09;;;9.49;91.97
72857;BME280;62742;52.136;4.500;2022-11-25T01:06:47;100909.72;;;9.41;92.56
72857;BME280;62742;52.136;4.500;2022-11-25T01:09:13;100918.63;;;9.22;93.67
72857;BME280;62742;52.136;4.500;2022-11-25T01:11:40;100919.41;;;9.31;93.37
72857;BME280;62742;52.136;4.500;2022-11-25T01:14:07;100924.66;;;9.31;93.55
72857;BME280;62742;52.136;4.500;2022-11-25T01:16:34;100915.88;;;9.35;92.70
72857;BME280;62742;52.136;4.500;2022-11-25T01:19:02;100927.28;;;9.33;93.32
72857;BME280;62742;52.136;4.500;2022-11-25T01:21:31;100925.50;;;9.35;93.39
72857;BME280;62742;52.136;4.500;2022-11-25T01:24:00;100918.47;;;9.40;92.97
72857;BME280;62742;52.136;4.500;2022-11-25T01:26:30;100923.66;;;9.46;92.50
72857;BME280;62742;52.136;4.500;2022-11-25T01:29:01;100929.75;;;9.50;92.20
72857;BME280;62742;52.136;4.500;2022-11-25T01:31:31;100917.66;;;9.33;92.82
72857;BME280;62742;52.136;4.500;2022-11-25T01:34:02;100915.94;;;9.29;93.15
72857;BME280;62742;52.136;4.500;2022-11-25T01:36:34;100907.06;;;9.43;92.63
72857;BME280;62742;52.136;4.500;2022-11-25T01:39:00;100908.94;;;9.31;92.75
72857;BME280;62742;52.136;4.500;2022-11-25T01:41:27;100899.28;;;9.35;92.46
72857;BME280;62742;52.136;4.500;2022-11-25T01:44:04;100908.16;;;9.20;93.49
72857;BME280;62742;52.136;4.500;2022-11-25T01:47:04;100919.44;;;9.28;92.90
72857;BME280;62742;52.136;4.500;2022-11-25T01:49:43;100920.44;;;9.10;93.05
72857;BME280;62742;52.136;4.500;2022-11-25T01:52:20;100912.41;;;9.33;92.75
72857;BME280;62742;52.136;4.500;2022-11-25T01:54:56;100913.34;;;9.26;92.60
72857;BME280;62742;52.136;4.500;2022-11-25T01:57:33;100907.19;;;9.29;92.59
72857;BME280;62742;52.136;4.500;2022-11-25T02:00:11;100911.63;;;9.22;93.32
72857;BME280;62742;52.136;4.500;2022-11-25T02:02:38;100912.56;;;9.16;93.33
72857;BME280;62742;52.136;4.500;2022-11-25T02:05:10;100908.94;;;9.28;93.19
72857;BME280;62742;52.136;4.500;2022-11-25T02:07:44;100915.97;;;9.26;93.29
72857;BME280;62742;52.136;4.500;2022-11-25T02:10:20;100924.66;;;9.30;93.22
72857;BME280;62742;52.136;4.500;2022-11-25T02:12:51;100920.16;;;9.44;92.01
72857;BME280;62742;52.136;4.500;2022-11-25T02:15:18;100921.13;;;9.35;92.71
72857;BME280;62742;52.136;4.500;2022-11-25T02:17:46;100921.19;;;9.31;92.54
72857;BME280;62742;52.136;4.500;2022-11-25T02:20:18;100926.44;;;9.29;93.15
72857;BME280;62742;52.136;4.500;2022-11-25T02:25:40;100915.84;;;9.39;92.41
72857;BME280;62742;52.136;4.500;2022-11-25T02:28:15;100911.44;;;9.44;92.42
72857;BME280;62742;52.136;4.500;2022-11-25T02:30:45;100918.56;;;9.31;92.72
72857;BME280;62742;52.136;4.500;2022-11-25T02:33:12;100916.91;;;9.21;93.19
72857;BME280;62742;52.136;4.500;2022-11-25T02:35:48;100917.69;;;9.27;92.70
72857;BME280;62742;52.136;4.500;2022-11-25T02:38:22;100920.16;;;9.44;91.57
72857;BME280;62742;52.136;4.500;2022-11-25T02:41:06;100924.56;;;9.39;91.57
72857;BME280;62742;52.136;4.500;2022-11-25T02:43:39;100929.94;;;9.28;92.33
72857;BME280;62742;52.136;4.500;2022-11-25T02:48:38;100930.91;;;9.16;92.52
72857;BME280;62742;52.136;4.500;2022-11-25T02:51:07;100937.94;;;9.10;92.28
72857;BME280;62742;52.136;4.500;2022-11-25T02:53:36;100938.88;;;9.01;92.90
72857;BME280;62742;52.136;4.500;2022-11-25T02:56:04;100950.13;;;9.15;92.19
72857;BME280;62742;52.136;4.500;2022-11-25T02:58:30;100937.13;;;9.02;92.42
72857;BME280;62742;52.136;4.500;2022-11-25T03:00:57;100946.63;;;9.15;92.12
72857;BME280;62742;52.136;4.500;2022-11-25T03:03:24;100948.41;;;9.14;91.64
72857;BME280;62742;52.136;4.500;2022-11-25T03:05:50;100952.81;;;9.11;91.86
72857;BME280;62742;52.136;4.500;2022-11-25T03:08:17;100949.34;;;9.07;91.91
72857;BME280;62742;52.136;4.500;2022-11-25T03:10:43;100954.63;;;8.99;91.98
72857;BME280;62742;52.136;4.500;2022-11-25T03:13:10;100946.75;;;8.98;92.16
72857;BME280;62742;52.136;4.500;2022-11-25T03:15:37;100944.13;;;8.99;92.11
72857;BME280;62742;52.136;4.500;2022-11-25T03:18:04;100953.75;;;8.99;91.97
72857;BME280;62742;52.136;4.500;2022-11-25T03:20:31;100953.78;;;8.93;92.02
72857;BME280;62742;52.136;4.500;2022-11-25T03:23:00;100949.47;;;8.90;92.08
72857;BME280;62742;52.136;4.500;2022-11-25T03:25:27;100958.28;;;8.77;92.09
72857;BME280;62742;52.136;4.500;2022-11-25T03:27:54;100966.16;;;8.72;92.28
72857;BME280;62742;52.136;4.500;2022-11-25T03:30:23;100956.59;;;8.68;92.52
72857;BME280;62742;52.136;4.500;2022-11-25T03:32:52;100954.72;;;8.84;91.95
72857;BME280;62742;52.136;4.500;2022-11-25T03:35:18;100969.59;;;8.84;91.48
72857;BME280;62742;52.136;4.500;2022-11-25T03:37:46;100974.75;;;8.93;90.92
72857;BME280;62742;52.136;4.500;2022-11-25T03:40:14;100971.34;;;8.83;90.47
72857;BME280;62742;52.136;4.500;2022-11-25T03:42:41;100984.50;;;8.71;90.85
72857;BME280;62742;52.136;4.500;2022-11-25T03:45:10;100984.56;;;8.61;90.74
72857;BME280;62742;52.136;4.500;2022-11-25T03:47:42;100984.56;;;8.58;91.03
72857;BME280;62742;52.136;4.500;2022-11-25T03:50:10;100987.19;;;8.58;90.96
72857;BME280;62742;52.136;4.500;2022-11-25T03:52:38;100986.25;;;8.69;89.64
72857;BME280;62742;52.136;4.500;2022-11-25T03:55:05;100991.50;;;8.67;90.02
72857;BME280;62742;52.136;4.500;2022-11-25T03:57:33;100983.66;;;8.66;90.05
72857;BME280;62742;52.136;4.500;2022-11-25T04:00:00;100985.50;;;8.51;90.51
72857;BME280;62742;52.136;4.500;2022-11-25T04:02:27;100984.63;;;8.41;90.99
72857;BME280;62742;52.136;4.500;2022-11-25T04:04:53;100981.16;;;8.44;91.09
72857;BME280;62742;52.136;4.500;2022-11-25T04:07:20;100996.00;;;8.37;90.57
72857;BME280;62742;52.136;4.500;2022-11-25T04:09:46;101003.84;;;8.36;91.10
72857;BME280;62742;52.136;4.500;2022-11-25T04:12:13;101006.44;;;8.47;90.08
72857;BME280;62742;52.136;4.500;2022-11-25T04:14:58;101009.94;;;8.36;91.00
72857;BME280;62742;52.136;4.500;2022-11-25T04:17:25;101013.44;;;8.38;90.73
72857;BME280;62742;52.136;4.500;2022-11-25T04:19:51;101005.63;;;8.26;90.18
72857;BME280;62742;52.136;4.500;2022-11-25T04:22:17;101001.28;;;8.20;90.61
72857;BME280;62742;52.136;4.500;2022-11-25T04:24:44;101009.16;;;8.11;91.47
72857;BME280;62742;52.136;4.500;2022-11-25T04:27:10;101017.84;;;8.27;90.59
72857;BME280;62742;52.136;4.500;2022-11-25T04:29:36;101010.00;;;8.24;90.76
72857;BME280;62742;52.136;4.500;2022-11-25T04:32:03;101018.72;;;8.26;90.79
72857;BME280;62742;52.136;4.500;2022-11-25T04:34:30;101020.47;;;8.16;91.15
72857;BME280;62742;52.136;4.500;2022-11-25T04:36:56;101028.34;;;8.16;91.26
72857;BME280;62742;52.136;4.500;2022-11-25T04:39:23;101028.38;;;8.13;90.67
72857;BME280;62742;52.136;4.500;2022-11-25T04:41:49;101044.06;;;8.04;91.80
72857;BME280;62742;52.136;4.500;2022-11-25T04:44:35;101037.06;;;8.12;90.24
72857;BME280;62742;52.136;4.500;2022-11-25T04:47:01;101045.81;;;7.96;91.23
72857;BME280;62742;52.136;4.500;2022-11-25T04:49:28;101048.44;;;8.00;91.67
72857;BME280;62742;52.136;4.500;2022-11-25T04:51:54;101051.91;;;8.05;91.38
72857;BME280;62742;52.136;4.500;2022-11-25T04:54:20;101049.34;;;7.96;92.12
72857;BME280;62742;52.136;4.500;2022-11-25T04:56:47;101048.44;;;8.10;91.42
72857;BME280;62742;52.136;4.500;2022-11-25T04:59:13;101044.94;;;8.08;91.53
72857;BME280;62742;52.136;4.500;2022-11-25T05:01:58;101053.66;;;8.13;90.95
72857;BME280;62742;52.136;4.500;2022-11-25T05:04:24;101065.88;;;8.14;90.81
72857;BME280;62742;52.136;4.500;2022-11-25T05:06:51;101067.63;;;8.04;91.21
72857;BME280;62742;52.136;4.500;2022-11-25T05:09:17;101064.13;;;7.97;91.81
72857;BME280;62742;52.136;4.500;2022-11-25T05:11:44;101074.59;;;8.14;90.75
72857;BME280;62742;52.136;4.500;2022-11-25T05:14:10;101070.22;;;8.18;90.45
72857;BME280;62742;52.136;4.500;2022-11-25T05:16:37;101065.03;;;7.96;91.06
72857;BME280;62742;52.136;4.500;2022-11-25T05:19:03;101076.38;;;7.89;91.43
72857;BME280;62742;52.136;4.500;2022-11-25T05:21:29;101081.63;;;7.84;91.16
72857;BME280;62742;52.136;4.500;2022-11-25T05:23:57;101084.22;;;7.80;91.12
72857;BME280;62742;52.136;4.500;2022-11-25T05:26:23;101086.84;;;7.86;91.62
72857;BME280;62742;52.136;4.500;2022-11-25T05:28:49;101092.97;;;7.77;91.94
72857;BME280;62742;52.136;4.500;2022-11-25T05:31:16;101097.31;;;7.86;92.08
72857;BME280;62742;52.136;4.500;2022-11-25T05:33:42;101100.78;;;8.00;91.52
72857;BME280;62742;52.136;4.500;2022-11-25T05:36:09;101099.91;;;7.97;91.64
72857;BME280;62742;52.136;4.500;2022-11-25T05:38:35;101097.28;;;7.98;91.66
72857;BME280;62742;52.136;4.500;2022-11-25T05:41:05;101092.94;;;7.94;91.02
72857;BME280;62742;52.136;4.500;2022-11-25T05:43:33;101107.78;;;7.83;91.60
72857;BME280;62742;52.136;4.500;2022-11-25T05:46:04;101106.00;;;7.96;91.23
72857;BME280;62742;52.136;4.500;2022-11-25T05:48:31;101099.91;;;7.78;91.85
72857;BME280;62742;52.136;4.500;2022-11-25T05:50:59;101105.16;;;7.72;91.98
72857;BME280;62742;52.136;4.500;2022-11-25T05:53:27;101100.78;;;7.80;91.11
72857;BME280;62742;52.136;4.500;2022-11-25T05:55:58;101106.91;;;7.79;91.47
72857;BME280;62742;52.136;4.500;2022-11-25T05:58:27;101107.78;;;7.86;90.79
72857;BME280;62742;52.136;4.500;2022-11-25T06:00:55;101108.66;;;7.77;90.70
72857;BME280;62742;52.136;4.500;2022-11-25T06:03:27;101105.16;;;7.72;90.61
72857;BME280;62742;52.136;4.500;2022-11-25T06:05:55;101115.59;;;7.80;90.15
72857;BME280;62742;52.136;4.500;2022-11-25T06:08:22;101119.09;;;7.73;89.99
72857;BME280;62742;52.136;4.500;2022-11-25T06:10:49;101115.59;;;7.66;90.74
72857;BME280;62742;52.136;4.500;2022-11-25T06:13:16;101108.66;;;7.62;90.47
72857;BME280;62742;52.136;4.500;2022-11-25T06:15:44;101111.22;;;7.63;90.38
72857;BME280;62742;52.136;4.500;2022-11-25T06:18:14;101126.91;;;7.48;90.61
72857;BME280;62742;52.136;4.500;2022-11-25T06:20:43;101127.81;;;7.52;90.43
72857;BME280;62742;52.136;4.500;2022-11-25T06:23:09;101132.16;;;7.51;91.02
72857;BME280;62742;52.136;4.500;2022-11-25T06:25:36;101140.00;;;7.54;91.20
72857;BME280;62742;52.136;4.500;2022-11-25T06:28:03;101142.63;;;7.62;90.83
72857;BME280;62742;52.136;4.500;2022-11-25T06:30:30;101147.00;;;7.67;90.49
72857;BME280;62742;52.136;4.500;2022-11-25T06:32:56;101147.84;;;7.57;90.29
72857;BME280;62742;52.136;4.500;2022-11-25T06:35:23;101153.94;;;7.68;89.71
72857;BME280;62742;52.136;4.500;2022-11-25T06:37:49;101156.53;;;7.41;90.26
72857;BME280;62742;52.136;4.500;2022-11-25T06:40:16;101151.34;;;7.50;90.07
72857;BME280;62742;52.136;4.500;2022-11-25T06:42:43;101160.03;;;7.46;90.59
72857;BME280;62742;52.136;4.500;2022-11-25T06:45:10;101165.22;;;7.34;90.90
72857;BME280;62742;52.136;4.500;2022-11-25T06:47:36;101173.09;;;7.37;90.89
72857;BME280;62742;52.136;4.500;2022-11-25T06:50:03;101176.59;;;7.43;89.72
72857;BME280;62742;52.136;4.500;2022-11-25T06:52:31;101186.09;;;7.21;90.82
72857;BME280;62742;52.136;4.500;2022-11-25T06:54:57;101180.00;;;7.22;90.76
72857;BME280;62742;52.136;4.500;2022-11-25T06:57:24;101192.16;;;7.13;90.86
72857;BME280;62742;52.136;4.500;2022-11-25T06:59:51;101193.06;;;7.16;90.89
72857;BME280;62742;52.136;4.500;2022-11-25T07:02:18;101200.03;;;7.14;90.89
72857;BME280;62742;52.136;4.500;2022-11-25T07:04:44;101209.56;;;7.10;90.72
72857;BME280;62742;52.136;4.500;2022-11-25T07:07:11;101206.19;;;7.32;89.41
72857;BME280;62742;52.136;4.500;2022-11-25T07:09:38;101209.66;;;7.30;89.18
72857;BME280;62742;52.136;4.500;2022-11-25T07:12:05;101212.19;;;7.15;89.52
72857;BME280;62742;52.136;4.500;2022-11-25T07:14:31;101219.19;;;7.24;89.90
72857;BME280;62742;52.136;4.500;2022-11-25T07:16:58;101218.28;;;7.17;90.09
72857;BME280;62742;52.136;4.500;2022-11-25T07:19:24;101227.03;;;7.22;89.53
72857;BME280;62742;52.136;4.500;2022-11-25T07:21:51;101236.50;;;7.02;89.61
72857;BME280;62742;52.136;4.500;2022-11-25T07:24:17;101237.38;;;6.98;90.98
72857;BME280;62742;52.136;4.500;2022-11-25T07:26:44;101231.41;;;7.26;89.59
72857;BME280;62742;52.136;4.500;2022-11-25T07:29:13;101229.66;;;7.22;89.94
72857;BME280;62742;52.136;4.500;2022-11-25T07:31:43;101235.72;;;7.15;90.47
72857;BME280;62742;52.136;4.500;2022-11-25T07:34:16;101245.41;;;7.35;89.65
72857;BME280;62742;52.136;4.500;2022-11-25T07:36:46;101246.28;;;7.35;89.82
72857;BME280;62742;52.136;4.500;2022-11-25T07:39:17;101246.19;;;7.20;90.20
72857;BME280;62742;52.136;4.500;2022-11-25T07:41:49;101250.66;;;7.36;89.32
72857;BME280;62742;52.136;4.500;2022-11-25T07:44:18;101259.25;;;7.18;90.23
72857;BME280;62742;52.136;4.500;2022-11-25T07:46:47;101264.44;;;7.12;91.02
72857;BME280;62742;52.136;4.500;2022-11-25T07:49:21;101265.44;;;7.31;90.22
72857;BME280;62742;52.136;4.500;2022-11-25T07:51:54;101274.97;;;7.24;90.38
72857;BME280;62742;52.136;4.500;2022-11-25T07:54:25;101282.81;;;7.27;90.83
72857;BME280;62742;52.136;4.500;2022-11-25T07:56:52;101288.09;;;7.34;90.62
72857;BME280;62742;52.136;4.500;2022-11-25T07:59:20;101288.13;;;7.41;90.57
72857;BME280;62742;52.136;4.500;2022-11-25T08:01:49;101299.50;;;7.46;89.60
72857;BME280;62742;52.136;4.500;2022-11-25T08:04:18;101299.50;;;7.54;89.23
72857;BME280;62742;52.136;4.500;2022-11-25T08:06:45;101307.31;;;7.48;89.67
72857;BME280;62742;52.136;4.500;2022-11-25T08:09:16;101305.59;;;7.50;89.45
72857;BME280;62742;52.136;4.500;2022-11-25T08:11:45;101318.66;;;7.53;89.73
72857;BME280;62742;52.136;4.500;2022-11-25T08:14:13;101324.72;;;7.44;90.23
72857;BME280;62742;52.136;4.500;2022-11-25T08:16:40;101323.91;;;7.53;90.14
72857;BME280;62742;52.136;4.500;2022-11-25T08:19:08;101330.03;;;7.57;89.74
72857;BME280;62742;52.136;4.500;2022-11-25T08:21:38;101315.28;;;7.79;88.85
72857;BME280;62742;52.136;4.500;2022-11-25T08:24:05;101332.75;;;7.83;89.06
72857;BME280;62742;52.136;4.500;2022-11-25T08:26:34;101326.63;;;7.79;89.42
72857;BME280;62742;52.136;4.500;2022-11-25T08:29:04;101327.53;;;7.88;89.75
72857;BME280;62742;52.136;4.500;2022-11-25T08:31:34;101329.25;;;7.87;89.94
72857;BME280;62742;52.136;4.500;2022-11-25T08:34:04;101325.78;;;7.88;90.13
72857;BME280;62742;52.136;4.500;2022-11-25T08:36:32;101326.72;;;7.99;89.78
72857;BME280;62742;52.136;4.500;2022-11-25T08:39:04;101332.81;;;8.01;90.17
72857;BME280;62742;52.136;4.500;2022-11-25T08:41:34;101342.41;;;8.04;89.93
72857;BME280;62742;52.136;4.500;2022-11-25T08:44:05;101347.66;;;8.07;89.58
72857;BME280;62742;52.136;4.500;2022-11-25T08:46:35;101350.31;;;8.24;89.31
72857;BME280;62742;52.136;4.500;2022-11-25T08:49:06;101351.19;;;8.20;89.93
72857;BME280;62742;52.136;4.500;2022-11-25T08:51:36;101360.78;;;8.24;90.26
72857;BME280;62742;52.136;4.500;2022-11-25T08:54:06;101369.56;;;8.35;89.88
72857;BME280;62742;52.136;4.500;2022-11-25T08:56:34;101373.97;;;8.46;89.38
72857;BME280;62742;52.136;4.500;2022-11-25T08:59:01;101364.34;;;8.54;89.25
72857;BME280;62742;52.136;4.500;2022-11-25T09:01:28;101377.47;;;8.48;90.26
72857;BME280;62742;52.136;4.500;2022-11-25T09:03:56;101373.06;;;8.47;90.57
72857;BME280;62742;52.136;4.500;2022-11-25T09:06:25;101385.31;;;8.60;90.37
72857;BME280;62742;52.136;4.500;2022-11-25T09:08:55;101376.59;;;8.72;90.50
72857;BME280;62742;52.136;4.500;2022-11-25T09:11:24;101373.97;;;8.83;90.19
72857;BME280;62742;52.136;4.500;2022-11-25T09:13:51;101383.59;;;8.99;89.70
72857;BME280;62742;52.136;4.500;2022-11-25T09:16:18;101384.47;;;9.13;89.35
72857;BME280;62742;52.136;4.500;2022-11-25T09:18:45;101391.47;;;9.21;89.53
72857;BME280;62742;52.136;4.500;2022-11-25T09:21:14;101392.31;;;9.36;89.17
72857;BME280;62742;52.136;4.500;2022-11-25T09:23:43;101389.63;;;9.60;88.55
72857;BME280;62742;52.136;4.500;2022-11-25T09:26:21;101390.41;;;9.85;87.79
72857;BME280;62742;52.136;4.500;2022-11-25T09:28:53;101401.75;;;9.95;87.84
72857;BME280;62742;52.136;4.500;2022-11-25T09:31:21;101402.56;;;10.12;87.03
72857;BME280;62742;52.136;4.500;2022-11-25T09:33:48;101411.22;;;10.36;86.20
72857;BME280;62742;52.136;4.500;2022-11-25T09:36:16;101412.00;;;10.50;86.83
72857;BME280;62742;52.136;4.500;2022-11-25T09:38:44;101419.75;;;10.75;86.56
72857;BME280;62742;52.136;4.500;2022-11-25T09:51:22;101430.09;;;10.95;84.59
72857;BME280;62742;52.136;4.500;2022-11-25T09:54:20;101431.84;;;10.96;84.56
72857;BME280;62742;52.136;4.500;2022-11-25T09:57:02;101444.97;;;11.00;83.88
72857;BME280;62742;52.136;4.500;2022-11-25T10:07:43;101458.06;;;11.05;85.13
72857;BME280;62742;52.136;4.500;2022-11-25T10:10:25;101468.44;;;11.22;84.50
72857;BME280;62742;52.136;4.500;2022-11-25T10:12:56;101460.38;;;11.45;84.34
72857;BME280;62742;52.136;4.500;2022-11-25T10:15:28;101461.91;;;11.66;84.63
72857;BME280;62742;52.136;4.500;2022-11-25T10:18:05;101460.78;;;11.95;83.45
72857;BME280;62742;52.136;4.500;2022-11-25T10:20:45;101466.03;;;11.95;82.46
72857;BME280;62742;52.136;4.500;2022-11-25T10:25:52;101464.19;;;12.03;80.30
72857;BME280;62742;52.136;4.500;2022-11-25T10:28:33;101473.09;;;11.90;78.56
72857;BME280;62742;52.136;4.500;2022-11-25T10:31:23;101474.31;;;11.56;79.80
72857;BME280;62742;52.136;4.500;2022-11-25T10:33:59;101479.66;;;11.44;80.67
72857;BME280;62742;52.136;4.500;2022-11-25T10:36:32;101488.38;;;11.51;80.93
72857;BME280;62742;52.136;4.500;2022-11-25T10:42:10;101499.63;;;11.70;80.43
72857;BME280;62742;52.136;4.500;2022-11-25T10:44:42;101506.72;;;11.62;80.94
72857;BME280;62742;52.136;4.500;2022-11-25T10:47:35;101516.28;;;11.72;80.21
72857;BME280;62742;52.136;4.500;2022-11-25T10:50:21;101518.72;;;11.95;80.64
72857;BME280;62742;52.136;4.500;2022-11-25T10:53:09;101519.22;;;12.28;80.87
72857;BME280;62742;52.136;4.500;2022-11-25T10:56:00;101527.63;;;12.59;79.80
72857;BME280;62742;52.136;4.500;2022-11-25T10:58:39;101525.91;;;13.20;78.50
72857;BME280;62742;52.136;4.500;2022-11-25T11:01:17;101524.38;;;13.04;77.11
72857;BME280;62742;52.136;4.500;2022-11-25T11:03:52;101526.81;;;12.56;77.98
72857;BME280;62742;52.136;4.500;2022-11-25T11:06:35;101533.78;;;12.60;79.03
72857;BME280;62742;52.136;4.500;2022-11-25T11:14:50;101556.19;;;12.22;82.14
72857;BME280;62742;52.136;4.500;2022-11-25T11:17:32;101559.00;;;12.06;82.16
72857;BME280;62742;52.136;4.500;2022-11-25T11:22:35;101565.25;;;11.96;81.76
72857;BME280;62742;52.136;4.500;2022-11-25T11:25:37;101568.75;;;11.93;81.01
72857;BME280;62742;52.136;4.500;2022-11-25T11:28:29;101573.88;;;12.09;82.50
72857;BME280;62742;52.136;4.500;2022-11-25T11:33:35;101584.81;;;12.56;79.53
72857;BME280;62742;52.136;4.500;2022-11-25T11:42:15;101593.66;;;12.48;79.52
72857;BME280;62742;52.136;4.500;2022-11-25T11:56:39;101611.22;;;13.21;78.48
72857;BME280;62742;52.136;4.500;2022-11-25T12:02:28;101608.91;;;12.96;77.27
72857;BME280;62742;52.136;4.500;2022-11-25T12:05:14;101619.19;;;13.16;77.37
72857;BME280;62742;52.136;4.500;2022-11-25T12:08:26;101619.22;;;13.15;77.01
72857;BME280;62742;52.136;4.500;2022-11-25T12:11:17;101618.00;;;13.39;75.79
72857;BME280;62742;52.136;4.500;2022-11-25T12:14:28;101626.69;;;12.80;76.76
72857;BME280;62742;52.136;4.500;2022-11-25T12:16:58;101628.84;;;12.47;78.91
72857;BME280;62742;52.136;4.500;2022-11-25T12:23:08;101641.16;;;12.45;78.39
72857;BME280;62742;52.136;4.500;2022-11-25T12:25:50;101639.41;;;12.44;79.64
72857;BME280;62742;52.136;4.500;2022-11-25T12:28:29;101643.81;;;12.45;78.34
72857;BME280;62742;52.136;4.500;2022-11-25T12:36:47;101654.41;;;12.39;78.35
72857;BME280;62742;52.136;4.500;2022-11-25T12:39:22;101659.66;;;12.39;77.95
72857;BME280;62742;52.136;4.500;2022-11-25T12:42:03;101666.78;;;12.31;78.70
72857;BME280;62742;52.136;4.500;2022-11-25T12:47:32;101670.31;;;12.28;77.61
72857;BME280;62742;52.136;4.500;2022-11-25T12:49:59;101669.47;;;12.25;77.32
72857;BME280;62742;52.136;4.500;2022-11-25T12:55:27;101685.09;;;12.42;76.14
72857;BME280;62742;52.136;4.500;2022-11-25T13:15:27;101698.09;;;12.62;74.92
72857;BME280;62742;52.136;4.500;2022-11-25T13:18:06;101702.63;;;12.50;73.83
72857;BME280;62742;52.136;4.500;2022-11-25T13:20:47;101707.91;;;12.47;73.38
72857;BME280;62742;52.136;4.500;2022-11-25T13:25:43;101718.66;;;12.24;74.79
72857;BME280;62742;52.136;4.500;2022-11-25T13:28:35;101713.34;;;12.32;74.12
72857;BME280;62742;52.136;4.500;2022-11-25T13:36:24;101737.22;;;12.10;74.95
72857;BME280;62742;52.136;4.500;2022-11-25T13:39:13;101735.53;;;12.02;75.05
72857;BME280;62742;52.136;4.500;2022-11-25T13:41:58;101745.06;;;12.20;75.20
72857;BME280;62742;52.136;4.500;2022-11-25T13:44:57;101747.63;;;12.29;75.47
72857;BME280;62742;52.136;4.500;2022-11-25T13:47:39;101746.56;;;12.48;74.01
72857;BME280;62742;52.136;4.500;2022-11-25T13:52:47;101752.72;;;12.47;75.03
72857;BME280;62742;52.136;4.500;2022-11-25T13:58:12;101775.75;;;12.27;75.39
72857;BME280;62742;52.136;4.500;2022-11-25T14:18:27;101810.25;;;11.74;76.87
72857;BME280;62742;52.136;4.500;2022-11-25T14:21:19;101814.69;;;11.63;77.24
72857;BME280;62742;52.136;4.500;2022-11-25T14:24:22;101813.81;;;11.67;77.44
72857;BME280;62742;52.136;4.500;2022-11-25T14:26:59;101812.09;;;11.57;78.00
72857;BME280;62742;52.136;4.500;2022-11-25T14:29:34;101812.03;;;11.75;77.21
72857;BME280;62742;52.136;4.500;2022-11-25T14:32:19;101821.66;;;11.73;76.37
72857;BME280;62742;52.136;4.500;2022-11-25T14:34:58;101812.97;;;11.54;77.25
72857;BME280;62742;52.136;4.500;2022-11-25T14:37:39;101817.38;;;11.51;77.23
72857;BME280;62742;52.136;4.500;2022-11-25T14:42:45;101834.13;;;11.27;78.61
72857;BME280;62742;52.136;4.500;2022-11-25T14:45:32;101839.34;;;11.37;77.80
72857;BME280;62742;52.136;4.500;2022-11-25T14:48:17;101836.75;;;11.31;78.02
72857;BME280;62742;52.136;4.500;2022-11-25T14:50:58;101850.81;;;11.22;77.83
72857;BME280;62742;52.136;4.500;2022-11-25T14:53:27;101850.81;;;11.18;78.17
72857;BME280;62742;52.136;4.500;2022-11-25T14:55:56;101857.84;;;11.13;78.70
72857;BME280;62742;52.136;4.500;2022-11-25T14:58:26;101871.88;;;11.09;79.50
72857;BME280;62742;52.136;4.500;2022-11-25T15:01:05;101870.13;;;11.08;79.69
72857;BME280;62742;52.136;4.500;2022-11-25T15:03:33;101883.25;;;11.01;79.82
72857;BME280;62742;52.136;4.500;2022-11-25T15:06:03;101886.78;;;10.94;79.90
72857;BME280;62742;52.136;4.500;2022-11-25T15:08:39;101895.56;;;10.87;80.19
72857;BME280;62742;52.136;4.500;2022-11-25T15:11:18;101889.44;;;10.87;80.45
72857;BME280;62742;52.136;4.500;2022-11-25T15:14:13;101904.31;;;10.88;80.38
72857;BME280;62742;52.136;4.500;2022-11-25T15:16:44;101903.44;;;10.76;80.74
72857;BME280;62742;52.136;4.500;2022-11-25T15:19:18;101915.72;;;10.73;80.59
72857;BME280;62742;52.136;4.500;2022-11-25T15:21:59;101924.44;;;10.69;80.76
72857;BME280;62742;52.136;4.500;2022-11-25T15:24:31;101923.56;;;10.65;81.23
72857;BME280;62742;52.136;4.500;2022-11-25T15:27:23;101927.97;;;10.68;80.70
72857;BME280;62742;52.136;4.500;2022-11-25T15:29:55;101929.69;;;10.56;81.71